15NC weather

Dragonfly Field
Ahoskie, North Carolina, United States

Public forecast

Using degrees Fahrenheit for public forecast. Weather courtesy of forecast.io.

Closest aviation weather report (METAR) to Dragonfly Field

Closest report is Tri County Airport, 10.1 nm (18.8 km) WNW. Retrieved 2019/12/10 13:35 UTC (0 seconds ago):

KASJ 101335Z AUTO 19009KT 10SM OVC012 17/17 A2999 RMK AO2 T01710167

Closest aviation forecast (TAF) to Dragonfly Field

Closest forecast is Elizabeth City Regional Airport & Coast Guard Air Station, 38.7 nm (71.7 km) E. Retrieved 2019/12/10 12:24 UTC (52 minutes ago):

TAF TAF KECG 101120Z 1012/1112 20010KT P6SM SCT035 BKN120 FM101600 22012G22KT P6SM BKN040 FM110000 25008KT 5SM -SHRA BKN030 FM110300 35008KT 4SM -RA BR OVC010 FM110900 02015G23KT 5SM -RA OVC015